Time;durP1;ratioP1;P1;durP2;ratioP2;P2;SDS_P1;SDS_P2;PMS_P1;PMS_P2;Temp;Humidity;BMP_temperature;BMP_pressure;BME280_temperature;BME280_humidity;BME280_pressure;Samples;Min_cycle;Max_cycle;Signal;HPM_P1;HPM_P2
2022/01/11 00:01:42;;;;;;;28.42;11.18;;;;;;;;;;5013156;28;100200;-76
2022/01/11 00:04:10;;;;;;;28.98;10.05;;;;;;;;;;4979944;28;103067;-75
2022/01/11 00:06:44;;;;;;;28.80;10.88;;;;;;;;;;4994246;28;103878;-76
2022/01/11 00:11:47;;;;;;;30.17;10.43;;;;;;;;;;4995764;28;100099;-76
2022/01/11 00:14:14;;;;;;;27.75;10.90;;;;;;;;;;4993148;28;100552;-75
2022/01/11 00:16:41;;;;;;;26.45;10.60;;;;;;;;;;5010661;28;100822;-76
2022/01/11 00:19:07;;;;;;;33.13;11.68;;;;;;;;;;5010490;28;100640;-76
2022/01/11 00:21:39;;;;;;;33.08;11.95;;;;;;;;;;5010731;28;100222;-76
2022/01/11 00:26:51;;;;;;;33.92;11.57;;;;;;;;;;5030841;28;100589;-76
2022/01/11 00:29:18;;;;;;;29.90;11.88;;;;;;;;;;5032655;28;100598;-76
2022/01/11 00:31:47;;;;;;;28.33;10.93;;;;;;;;;;5031666;28;100093;-76
2022/01/11 00:34:16;;;;;;;28.48;11.38;;;;;;;;;;5013493;28;100630;-76
2022/01/11 00:36:43;;;;;;;31.48;10.77;;;;;;;;;;5032558;28;100293;-76
2022/01/11 00:39:13;;;;;;;33.65;11.23;;;;;;;;;;5027607;28;103053;-76
2022/01/11 00:41:41;;;;;;;36.25;12.10;;;;;;;;;;5013294;28;100301;-76
2022/01/11 00:44:08;;;;;;;37.17;13.50;;;;;;;;;;5012794;28;101485;-76
2022/01/11 00:46:35;;;;;;;31.55;10.90;;;;;;;;;;4993270;28;100266;-76
2022/01/11 00:49:02;;;;;;;36.80;12.10;;;;;;;;;;5014376;28;100554;-77
2022/01/11 00:51:29;;;;;;;33.40;11.15;;;;;;;;;;5015254;28;100218;-75
2022/01/11 00:53:58;;;;;;;35.38;12.45;;;;;;;;;;5029379;28;100028;-75
2022/01/11 00:56:25;;;;;;;36.13;11.55;;;;;;;;;;4994845;28;102381;-76
2022/01/11 00:58:52;;;;;;;35.65;12.25;;;;;;;;;;5031740;28;101643;-75
2022/01/11 01:01:19;;;;;;;29.15;10.82;;;;;;;;;;5028292;28;102377;-75
2022/01/11 01:03:46;;;;;;;33.42;12.77;;;;;;;;;;5010510;28;100222;-75
2022/01/11 01:06:12;;;;;;;30.48;11.73;;;;;;;;;;4997387;28;100694;-75
2022/01/11 01:08:40;;;;;;;31.60;11.52;;;;;;;;;;5045880;27;102454;-75
2022/01/11 01:11:10;;;;;;;30.30;10.90;;;;;;;;;;5035002;27;100172;-75
2022/01/11 01:13:42;;;;;;;27.77;11.45;;;;;;;;;;5034713;27;100215;-75
2022/01/11 01:16:11;;;;;;;28.42;11.93;;;;;;;;;;5033217;27;100662;-75
2022/01/11 01:19:00;;;;;;;31.55;11.23;;;;;;;;;;5019569;27;100899;-76
2022/01/11 01:21:27;;;;;;;33.00;12.52;;;;;;;;;;5001403;27;100094;-74
2022/01/11 01:23:54;;;;;;;30.55;11.30;;;;;;;;;;5034688;27;100220;-75
2022/01/11 01:26:22;;;;;;;31.52;11.30;;;;;;;;;;4994240;28;100556;-76
2022/01/11 01:28:48;;;;;;;31.52;11.68;;;;;;;;;;5013066;28;100567;-75
2022/01/11 01:31:16;;;;;;;31.73;11.45;;;;;;;;;;5014354;28;100116;-76
2022/01/11 01:33:42;;;;;;;32.88;12.20;;;;;;;;;;4981576;28;100256;-76
2022/01/11 01:36:11;;;;;;;30.33;10.98;;;;;;;;;;5030418;28;100153;-77
2022/01/11 01:38:39;;;;;;;26.05;9.80;;;;;;;;;;5031531;28;100693;-77
2022/01/11 01:41:15;;;;;;;28.13;10.48;;;;;;;;;;5032224;28;100111;-77
2022/01/11 01:43:43;;;;;;;29.60;11.05;;;;;;;;;;4984726;27;100175;-76
2022/01/11 01:46:10;;;;;;;30.83;11.25;;;;;;;;;;5025795;27;100216;-76
2022/01/11 01:48:37;;;;;;;25.27;9.45;;;;;;;;;;5016689;27;100697;-76
2022/01/11 01:51:05;;;;;;;26.52;10.32;;;;;;;;;;5034645;27;102521;-76
2022/01/11 01:53:33;;;;;;;27.65;10.25;;;;;;;;;;5014539;27;100595;-76
2022/01/11 01:56:00;;;;;;;29.05;10.90;;;;;;;;;;4996812;27;100898;-76
2022/01/11 01:58:29;;;;;;;28.73;10.95;;;;;;;;;;5013218;27;100713;-76
2022/01/11 02:01:02;;;;;;;25.48;9.57;;;;;;;;;;4997599;27;100092;-76
2022/01/11 02:03:37;;;;;;;26.75;9.77;;;;;;;;;;4997795;27;100114;-76
2022/01/11 02:06:08;;;;;;;26.30;9.93;;;;;;;;;;5013879;27;100521;-76
2022/01/11 02:08:35;;;;;;;30.20;10.35;;;;;;;;;;5034481;27;100791;-76
2022/01/11 02:11:02;;;;;;;26.80;9.38;;;;;;;;;;5037370;27;100247;-77
2022/01/11 02:13:29;;;;;;;29.83;10.00;;;;;;;;;;5004673;27;100207;-76
2022/01/11 02:15:57;;;;;;;23.23;8.85;;;;;;;;;;5036954;27;100244;-76
2022/01/11 02:18:25;;;;;;;20.77;8.00;;;;;;;;;;5004471;27;100590;-76
2022/01/11 02:20:59;;;;;;;22.83;8.70;;;;;;;;;;5005721;27;100080;-76
2022/01/11 02:23:31;;;;;;;19.80;7.72;;;;;;;;;;5022398;27;102815;-76
2022/01/11 02:25:58;;;;;;;21.45;8.32;;;;;;;;;;5036426;27;100773;-76
2022/01/11 02:28:28;;;;;;;19.48;7.82;;;;;;;;;;4986837;27;100635;-76
2022/01/11 02:30:55;;;;;;;22.17;8.95;;;;;;;;;;5021004;27;100260;-76
2022/01/11 02:33:41;;;;;;;20.08;8.57;;;;;;;;;;5054442;27;100110;-76
2022/01/11 02:36:33;;;;;;;18.42;7.60;;;;;;;;;;5034642;27;100803;-76
2022/01/11 02:39:23;;;;;;;17.65;7.75;;;;;;;;;;5010094;27;101054;-76
2022/01/11 02:41:57;;;;;;;24.35;7.63;;;;;;;;;;5036921;27;100139;-75
2022/01/11 02:44:29;;;;;;;23.10;8.93;;;;;;;;;;5011714;28;100172;-75
2022/01/11 02:46:57;;;;;;;20.30;8.60;;;;;;;;;;4990566;28;102070;-75
2022/01/11 02:49:26;;;;;;;17.95;8.20;;;;;;;;;;5016455;28;101393;-75
2022/01/11 02:52:03;;;;;;;20.00;8.30;;;;;;;;;;5001431;28;100153;-75
2022/01/11 02:54:30;;;;;;;20.52;8.73;;;;;;;;;;5016854;28;100010;-76
2022/01/11 02:57:08;;;;;;;23.58;9.02;;;;;;;;;;5018173;28;100363;-76
2022/01/11 02:59:35;;;;;;;20.27;8.73;;;;;;;;;;5016071;28;100630;-76
2022/01/11 03:02:02;;;;;;;22.38;8.43;;;;;;;;;;5016773;28;100209;-76
2022/01/11 03:04:31;;;;;;;23.73;8.52;;;;;;;;;;4999258;28;100136;-76
2022/01/11 03:06:58;;;;;;;21.40;7.70;;;;;;;;;;5033807;28;100806;-76
2022/01/11 03:09:40;;;;;;;21.73;9.15;;;;;;;;;;5016130;28;101291;-76
2022/01/11 03:12:07;;;;;;;21.33;8.43;;;;;;;;;;5016526;28;100171;-75
2022/01/11 03:14:34;;;;;;;23.17;8.20;;;;;;;;;;5033142;28;100220;-74
2022/01/11 03:17:01;;;;;;;20.55;8.07;;;;;;;;;;5016084;28;100226;-75
2022/01/11 03:19:29;;;;;;;21.02;8.35;;;;;;;;;;4982447;28;101919;-74
2022/01/11 03:21:56;;;;;;;22.55;9.07;;;;;;;;;;4986967;28;101441;-75
2022/01/11 03:24:23;;;;;;;22.88;8.57;;;;;;;;;;5031552;27;101917;-76
2022/01/11 03:26:50;;;;;;;18.83;7.63;;;;;;;;;;4988372;27;101354;-76
2022/01/11 03:29:18;;;;;;;25.33;9.70;;;;;;;;;;5036262;27;100660;-76
2022/01/11 03:31:44;;;;;;;22.08;9.02;;;;;;;;;;4996330;28;100167;-75
2022/01/11 03:34:18;;;;;;;18.05;7.95;;;;;;;;;;5014995;28;102914;-74
2022/01/11 03:36:45;;;;;;;21.95;8.82;;;;;;;;;;5015827;28;100151;-75
2022/01/11 03:39:12;;;;;;;19.85;8.40;;;;;;;;;;4999458;28;101245;-75
2022/01/11 03:41:39;;;;;;;15.38;7.30;;;;;;;;;;5014139;27;103014;-75
2022/01/11 03:44:06;;;;;;;17.38;7.15;;;;;;;;;;5017691;27;100211;-75
2022/01/11 03:46:33;;;;;;;19.42;7.57;;;;;;;;;;5035742;27;103339;-75
2022/01/11 03:49:01;;;;;;;18.58;7.18;;;;;;;;;;5035872;27;101128;-75
2022/01/11 03:51:34;;;;;;;18.90;8.32;;;;;;;;;;5002606;27;100041;-75
2022/01/11 03:54:15;;;;;;;16.90;7.45;;;;;;;;;;5036176;27;100979;-75
2022/01/11 03:57:01;;;;;;;16.85;6.85;;;;;;;;;;5020215;27;100820;-75
2022/01/11 03:59:34;;;;;;;16.17;7.03;;;;;;;;;;5032641;27;100602;-75
2022/01/11 04:02:02;;;;;;;18.75;7.85;;;;;;;;;;5015978;27;100256;-75
2022/01/11 04:04:29;;;;;;;18.55;7.43;;;;;;;;;;5034806;27;100168;-76
2022/01/11 04:07:00;;;;;;;18.90;7.28;;;;;;;;;;5018641;27;101040;-76
2022/01/11 04:09:27;;;;;;;18.70;8.13;;;;;;;;;;5019240;27;101205;-75
2022/01/11 04:11:54;;;;;;;23.13;8.13;;;;;;;;;;5034218;27;101598;-75
2022/01/11 04:14:25;;;;;;;17.23;7.30;;;;;;;;;;5019461;27;100101;-75
2022/01/11 04:16:53;;;;;;;20.25;8.13;;;;;;;;;;5006616;28;100268;-75
2022/01/11 04:19:20;;;;;;;16.63;6.93;;;;;;;;;;5031077;27;100808;-75
2022/01/11 04:21:47;;;;;;;14.90;6.30;;;;;;;;;;5013884;27;100114;-76
2022/01/11 04:24:14;;;;;;;17.20;7.03;;;;;;;;;;5029397;27;102469;-75
2022/01/11 04:26:46;;;;;;;17.45;7.57;;;;;;;;;;5031631;27;100809;-75
2022/01/11 04:29:13;;;;;;;19.08;7.25;;;;;;;;;;4998743;27;100705;-76
2022/01/11 04:31:40;;;;;;;17.83;7.03;;;;;;;;;;4997581;27;100112;-76
2022/01/11 04:34:14;;;;;;;18.42;7.80;;;;;;;;;;5040754;27;101420;-76
2022/01/11 04:36:42;;;;;;;18.58;7.47;;;;;;;;;;5023999;27;102083;-76
2022/01/11 04:39:11;;;;;;;18.83;7.75;;;;;;;;;;4998590;27;100703;-76
2022/01/11 04:41:38;;;;;;;18.20;7.28;;;;;;;;;;5015741;27;100111;-75
2022/01/11 04:44:05;;;;;;;17.52;7.40;;;;;;;;;;4984314;27;101991;-76
2022/01/11 04:46:33;;;;;;;15.60;7.63;;;;;;;;;;5018039;27;102694;-75
2022/01/11 04:49:00;;;;;;;22.98;8.85;;;;;;;;;;5035216;27;101121;-76
2022/01/11 04:51:29;;;;;;;14.20;7.75;;;;;;;;;;5019081;27;100254;-76
2022/01/11 04:53:56;;;;;;;25.48;7.55;;;;;;;;;;5018657;27;100021;-76
2022/01/11 04:56:24;;;;;;;16.45;7.47;;;;;;;;;;5017535;27;102594;-76
2022/01/11 04:58:52;;;;;;;25.90;9.70;;;;;;;;;;5051724;27;101068;-76
2022/01/11 05:01:19;;;;;;;20.52;8.68;;;;;;;;;;5053351;27;100099;-76
2022/01/11 05:03:46;;;;;;;19.35;8.23;;;;;;;;;;5018633;27;100535;-76
2022/01/11 05:06:13;;;;;;;24.38;8.25;;;;;;;;;;5034768;27;100523;-76
2022/01/11 05:08:40;;;;;;;22.55;9.00;;;;;;;;;;5017379;27;100935;-76
2022/01/11 05:11:08;;;;;;;20.92;8.05;;;;;;;;;;5018842;27;100161;-76
2022/01/11 05:13:36;;;;;;;20.17;8.30;;;;;;;;;;5032664;27;100181;-75
2022/01/11 05:16:10;;;;;;;20.40;7.55;;;;;;;;;;5014615;27;102716;-75
2022/01/11 05:18:37;;;;;;;16.40;7.55;;;;;;;;;;5014632;27;100616;-76
2022/01/11 05:21:04;;;;;;;16.50;7.07;;;;;;;;;;5030242;27;100974;-76
2022/01/11 05:23:31;;;;;;;23.30;8.05;;;;;;;;;;5051780;27;102188;-76
2022/01/11 05:25:58;;;;;;;21.92;7.88;;;;;;;;;;5035117;27;100316;-76
2022/01/11 05:28:25;;;;;;;15.63;7.07;;;;;;;;;;5034247;27;100644;-75
2022/01/11 05:30:52;;;;;;;15.77;7.13;;;;;;;;;;5034844;27;100276;-75
2022/01/11 05:33:19;;;;;;;17.17;6.88;;;;;;;;;;5034861;27;102640;-76
2022/01/11 05:35:47;;;;;;;18.10;7.72;;;;;;;;;;5034485;27;100397;-76
2022/01/11 05:38:14;;;;;;;21.13;7.90;;;;;;;;;;5034391;27;101065;-77
2022/01/11 05:40:40;;;;;;;20.33;8.00;;;;;;;;;;5034773;27;100231;-77
2022/01/11 05:43:12;;;;;;;23.33;8.63;;;;;;;;;;5052470;27;100071;-77
2022/01/11 05:45:39;;;;;;;22.40;9.18;;;;;;;;;;5038077;27;100307;-76
2022/01/11 05:48:07;;;;;;;16.90;6.97;;;;;;;;;;5028310;27;102188;-76
2022/01/11 05:50:38;;;;;;;14.50;7.38;;;;;;;;;;5053208;27;100163;-76
2022/01/11 05:53:07;;;;;;;19.77;7.22;;;;;;;;;;5044544;27;100067;-75
2022/01/11 05:55:34;;;;;;;17.88;7.88;;;;;;;;;;5036874;27;100313;-75
2022/01/11 05:58:03;;;;;;;19.80;7.10;;;;;;;;;;4987349;27;100676;-75
2022/01/11 06:00:30;;;;;;;17.48;6.20;;;;;;;;;;5034030;27;102534;-75
2022/01/11 06:02:58;;;;;;;16.30;6.45;;;;;;;;;;5021846;27;100294;-76
2022/01/11 06:05:39;;;;;;;17.58;6.85;;;;;;;;;;5034865;27;100727;-77
2022/01/11 06:08:09;;;;;;;17.73;6.43;;;;;;;;;;5021750;27;100753;-76
2022/01/11 06:10:38;;;;;;;16.38;6.25;;;;;;;;;;5020800;27;100200;-77
2022/01/11 06:13:05;;;;;;;16.92;6.68;;;;;;;;;;5053726;27;100100;-76
2022/01/11 06:15:33;;;;;;;16.95;6.97;;;;;;;;;;5037427;27;101049;-76
2022/01/11 06:18:01;;;;;;;21.00;7.22;;;;;;;;;;5021051;27;100752;-75
2022/01/11 06:20:30;;;;;;;17.33;7.13;;;;;;;;;;5021220;27;100135;-75
2022/01/11 06:22:57;;;;;;;16.50;6.78;;;;;;;;;;5021094;27;100194;-75
2022/01/11 06:25:24;;;;;;;17.10;6.90;;;;;;;;;;5037363;27;100206;-75
2022/01/11 06:27:52;;;;;;;19.42;7.40;;;;;;;;;;5003326;27;101597;-75
2022/01/11 06:30:20;;;;;;;16.35;6.85;;;;;;;;;;5055670;27;100208;-75
2022/01/11 06:32:47;;;;;;;17.23;6.85;;;;;;;;;;5020834;27;102617;-76
2022/01/11 06:35:15;;;;;;;21.83;7.75;;;;;;;;;;5054969;27;102467;-75
2022/01/11 06:37:44;;;;;;;19.25;7.75;;;;;;;;;;5020746;27;100679;-76
2022/01/11 06:40:13;;;;;;;19.67;7.15;;;;;;;;;;5037359;27;100135;-76
2022/01/11 06:42:40;;;;;;;17.70;7.15;;;;;;;;;;5037135;27;100158;-76
2022/01/11 06:45:08;;;;;;;19.90;6.43;;;;;;;;;;5019075;27;100866;-76
2022/01/11 06:47:34;;;;;;;20.05;7.75;;;;;;;;;;5053501;27;101056;-75
2022/01/11 06:50:02;;;;;;;22.50;8.32;;;;;;;;;;5034644;27;100114;-75
2022/01/11 06:52:30;;;;;;;19.40;6.97;;;;;;;;;;5019230;27;100190;-76
2022/01/11 06:54:57;;;;;;;23.17;7.93;;;;;;;;;;5017172;27;100309;-75
2022/01/11 06:57:24;;;;;;;25.33;8.98;;;;;;;;;;5020050;27;102638;-75
2022/01/11 06:59:51;;;;;;;18.60;7.47;;;;;;;;;;5003685;27;100261;-76
2022/01/11 07:02:22;;;;;;;19.48;7.25;;;;;;;;;;5037181;27;100128;-76
2022/01/11 07:05:11;;;;;;;19.98;7.00;;;;;;;;;;5022568;27;102402;-75
2022/01/11 07:07:38;;;;;;;20.30;7.50;;;;;;;;;;5053164;27;100527;-75
2022/01/11 07:10:05;;;;;;;17.65;7.40;;;;;;;;;;5000262;27;100174;-74
2022/01/11 07:12:33;;;;;;;17.48;7.25;;;;;;;;;;5017035;28;100286;-74
2022/01/11 07:15:00;;;;;;;24.42;8.27;;;;;;;;;;5008867;27;100272;-75
2022/01/11 07:17:28;;;;;;;19.23;7.75;;;;;;;;;;5019397;27;100640;-77
2022/01/11 07:19:56;;;;;;;19.02;8.05;;;;;;;;;;5001224;27;100124;-75
2022/01/11 07:22:23;;;;;;;17.85;7.30;;;;;;;;;;5000148;27;100207;-75
2022/01/11 07:24:50;;;;;;;27.65;9.23;;;;;;;;;;5015753;27;100240;-75
2022/01/11 07:27:18;;;;;;;18.65;8.07;;;;;;;;;;5016134;27;100595;-76
2022/01/11 07:29:46;;;;;;;21.48;7.57;;;;;;;;;;5032630;27;100065;-74
2022/01/11 07:32:13;;;;;;;19.40;7.28;;;;;;;;;;5003600;27;102415;-75
2022/01/11 07:34:41;;;;;;;22.67;8.73;;;;;;;;;;5019410;27;100365;-75
2022/01/11 07:37:10;;;;;;;14.80;7.00;;;;;;;;;;5054151;27;100537;-76
2022/01/11 07:39:40;;;;;;;17.65;7.30;;;;;;;;;;5003915;27;100169;-76
2022/01/11 07:42:08;;;;;;;14.27;6.63;;;;;;;;;;5020312;27;100224;-76
2022/01/11 07:44:50;;;;;;;16.75;7.15;;;;;;;;;;5020505;27;100300;-75
2022/01/11 07:47:19;;;;;;;18.33;7.32;;;;;;;;;;5035654;27;100807;-75
2022/01/11 07:49:47;;;;;;;19.30;7.60;;;;;;;;;;5019039;27;100292;-74
2022/01/11 07:52:14;;;;;;;17.30;6.97;;;;;;;;;;5053487;27;103687;-75
2022/01/11 07:54:43;;;;;;;18.20;7.15;;;;;;;;;;5018860;27;100279;-76
2022/01/11 07:57:13;;;;;;;19.63;7.88;;;;;;;;;;5019466;27;100587;-76
2022/01/11 07:59:40;;;;;;;21.52;9.00;;;;;;;;;;5019250;27;100110;-74
2022/01/11 08:02:23;;;;;;;18.92;6.65;;;;;;;;;;5034606;27;100134;-76
2022/01/11 08:04:53;;;;;;;18.27;7.75;;;;;;;;;;4999304;27;100145;-76
2022/01/11 08:07:20;;;;;;;16.20;7.25;;;;;;;;;;5028075;27;100686;-76
2022/01/11 08:10:02;;;;;;;18.67;7.03;;;;;;;;;;5006528;27;100363;-76
2022/01/11 08:12:29;;;;;;;17.85;7.30;;;;;;;;;;5019720;27;100104;-76
2022/01/11 08:14:58;;;;;;;17.05;6.93;;;;;;;;;;5035634;27;100332;-76
2022/01/11 08:17:28;;;;;;;17.10;7.22;;;;;;;;;;5052460;27;100556;-75
2022/01/11 08:19:55;;;;;;;17.77;7.13;;;;;;;;;;5035978;27;100066;-75
2022/01/11 08:22:22;;;;;;;18.05;6.25;;;;;;;;;;5019043;27;100109;-76
2022/01/11 08:24:53;;;;;;;15.88;6.88;;;;;;;;;;5017009;27;101454;-76
2022/01/11 08:27:22;;;;;;;16.38;7.55;;;;;;;;;;4998498;27;101001;-75
2022/01/11 08:29:51;;;;;;;18.10;7.60;;;;;;;;;;5017386;27;100092;-75
2022/01/11 08:32:18;;;;;;;18.00;7.25;;;;;;;;;;5016487;27;100280;-75
2022/01/11 08:34:45;;;;;;;17.45;7.78;;;;;;;;;;5024688;27;100256;-75
2022/01/11 08:37:14;;;;;;;15.32;6.85;;;;;;;;;;5035220;27;100562;-75
2022/01/11 08:39:42;;;;;;;17.08;7.28;;;;;;;;;;5034872;27;100288;-75
2022/01/11 08:42:13;;;;;;;16.73;7.05;;;;;;;;;;5019635;27;100159;-75
2022/01/11 08:44:46;;;;;;;13.88;6.53;;;;;;;;;;5018662;27;100851;-75
2022/01/11 08:47:14;;;;;;;17.98;6.78;;;;;;;;;;4999119;27;101193;-75
2022/01/11 08:49:44;;;;;;;17.25;6.60;;;;;;;;;;5031592;27;100199;-74
2022/01/11 08:52:11;;;;;;;14.27;6.80;;;;;;;;;;5015589;27;100220;-75
2022/01/11 08:54:39;;;;;;;19.15;7.13;;;;;;;;;;5033113;27;103797;-75
2022/01/11 08:57:08;;;;;;;17.35;6.80;;;;;;;;;;5034479;27;101255;-75
2022/01/11 08:59:36;;;;;;;16.70;6.90;;;;;;;;;;5018659;27;100159;-75
2022/01/11 09:02:07;;;;;;;15.43;7.40;;;;;;;;;;5035509;27;100500;-76
2022/01/11 09:04:36;;;;;;;16.13;7.13;;;;;;;;;;5012757;27;102257;-76
2022/01/11 09:07:10;;;;;;;16.55;6.53;;;;;;;;;;5030154;27;100589;-76
2022/01/11 09:09:38;;;;;;;17.30;7.00;;;;;;;;;;5048108;27;100277;-75
2022/01/11 09:12:08;;;;;;;17.63;6.25;;;;;;;;;;4973557;28;100350;-76
2022/01/11 09:14:39;;;;;;;15.40;6.75;;;;;;;;;;4999839;27;100318;-74
2022/01/11 09:17:06;;;;;;;19.05;6.72;;;;;;;;;;5051291;27;100749;-75
2022/01/11 09:19:33;;;;;;;14.85;6.32;;;;;;;;;;5003963;27;100153;-74
2022/01/11 09:22:01;;;;;;;14.18;5.70;;;;;;;;;;5051023;27;100109;-74
2022/01/11 09:24:35;;;;;;;;;;;;;;;;;;5044585;27;100333;-75
2022/01/11 09:27:04;;;;;;;15.07;6.80;;;;;;;;;;5036758;27;101072;-76
2022/01/11 09:29:38;;;;;;;14.75;5.35;;;;;;;;;;5037075;27;100229;-74
2022/01/11 09:32:07;;;;;;;20.58;8.07;;;;;;;;;;5038597;27;100562;-75
2022/01/11 09:34:37;;;;;;;14.55;6.45;;;;;;;;;;4990665;27;100664;-75
2022/01/11 09:37:05;;;;;;;12.73;6.07;;;;;;;;;;5043550;27;100646;-75
2022/01/11 09:39:32;;;;;;;16.63;6.50;;;;;;;;;;5037686;27;100586;-75
2022/01/11 09:42:01;;;;;;;13.98;6.28;;;;;;;;;;5004213;27;100221;-75
2022/01/11 09:44:29;;;;;;;15.82;6.25;;;;;;;;;;5019809;27;100758;-75
2022/01/11 09:46:56;;;;;;;13.63;5.90;;;;;;;;;;5003727;27;101540;-76
2022/01/11 09:49:23;;;;;;;15.85;6.38;;;;;;;;;;5004595;27;100167;-75
2022/01/11 09:51:53;;;;;;;17.35;7.55;;;;;;;;;;5021244;27;100622;-75
2022/01/11 09:54:20;;;;;;;17.50;6.97;;;;;;;;;;5019836;27;100219;-75
2022/01/11 09:56:48;;;;;;;12.90;6.22;;;;;;;;;;5053322;27;100840;-75
2022/01/11 09:59:17;;;;;;;15.07;6.20;;;;;;;;;;5009672;27;100249;-74
2022/01/11 10:02:13;;;;;;;15.80;5.93;;;;;;;;;;5014484;27;100170;-75
2022/01/11 10:04:58;;;;;;;15.13;5.80;;;;;;;;;;5016118;27;100531;-75
2022/01/11 10:07:40;;;;;;;14.82;6.63;;;;;;;;;;5044432;27;100229;-75
2022/01/11 10:10:17;;;;;;;18.80;7.10;;;;;;;;;;5016941;27;100235;-77
2022/01/11 10:12:51;;;;;;;12.77;5.90;;;;;;;;;;5020715;27;100298;-75
2022/01/11 10:15:33;;;;;;;14.90;5.80;;;;;;;;;;5018023;27;100271;-75
2022/01/11 10:18:36;;;;;;;15.15;5.95;;;;;;;;;;5018346;27;100909;-75
2022/01/11 10:21:37;;;;;;;16.25;5.85;;;;;;;;;;5022587;27;100983;-76
2022/01/11 10:24:39;;;;;;;14.75;5.22;;;;;;;;;;5030171;27;100324;-75
2022/01/11 10:27:17;;;;;;;17.45;7.00;;;;;;;;;;5031684;27;101518;-76
2022/01/11 10:29:48;;;;;;;14.50;6.47;;;;;;;;;;5009746;27;101860;-75
2022/01/11 10:32:27;;;;;;;15.55;6.50;;;;;;;;;;5012172;27;100231;-76
2022/01/11 10:35:12;;;;;;;12.77;6.10;;;;;;;;;;5020770;27;102348;-74
2022/01/11 10:38:00;;;;;;;9.70;4.70;;;;;;;;;;5033187;27;103154;-75
2022/01/11 10:40:32;;;;;;;12.95;5.10;;;;;;;;;;5029892;27;102944;-76
2022/01/11 10:43:05;;;;;;;11.23;4.88;;;;;;;;;;5023470;27;100219;-75
2022/01/11 10:45:37;;;;;;;9.13;4.43;;;;;;;;;;4984699;27;100150;-75
2022/01/11 10:48:08;;;;;;;13.65;4.75;;;;;;;;;;5010158;27;103361;-74
2022/01/11 10:50:43;;;;;;;14.02;5.03;;;;;;;;;;5014777;27;100609;-74
2022/01/11 10:53:12;;;;;;;10.68;4.45;;;;;;;;;;5031956;27;100206;-75
2022/01/11 10:55:40;;;;;;;12.15;5.10;;;;;;;;;;5014652;27;100212;-76
2022/01/11 10:58:36;;;;;;;13.48;5.55;;;;;;;;;;5000754;27;100153;-76
2022/01/11 11:01:06;;;;;;;12.95;5.35;;;;;;;;;;5011234;27;100693;-75
2022/01/11 11:03:34;;;;;;;15.38;5.35;;;;;;;;;;5015011;27;100292;-76
2022/01/11 11:06:10;;;;;;;10.82;4.75;;;;;;;;;;5031644;27;100106;-75
2022/01/11 11:08:41;;;;;;;12.02;5.65;;;;;;;;;;5029320;27;102470;-76
2022/01/11 11:11:34;;;;;;;16.70;6.50;;;;;;;;;;5006721;27;101146;-76
2022/01/11 11:14:16;;;;;;;16.13;6.20;;;;;;;;;;5028082;27;100301;-77
2022/01/11 11:17:02;;;;;;;13.50;5.97;;;;;;;;;;5016827;27;101874;-74
2022/01/11 11:19:54;;;;;;;12.43;6.03;;;;;;;;;;4995187;27;100493;-75
2022/01/11 11:22:21;;;;;;;13.63;5.97;;;;;;;;;;5015517;27;100830;-75
2022/01/11 11:24:48;;;;;;;14.55;5.50;;;;;;;;;;5012624;27;100158;-75
2022/01/11 11:27:15;;;;;;;16.02;4.90;;;;;;;;;;5047509;27;100091;-75
2022/01/11 11:29:42;;;;;;;16.48;4.35;;;;;;;;;;5013242;27;100192;-75
2022/01/11 11:32:10;;;;;;;12.23;4.78;;;;;;;;;;5031768;27;100559;-76
2022/01/11 11:34:38;;;;;;;9.75;4.88;;;;;;;;;;5013792;27;102190;-75
2022/01/11 11:37:05;;;;;;;12.52;5.28;;;;;;;;;;5032022;27;100156;-76
2022/01/11 11:39:32;;;;;;;16.95;5.60;;;;;;;;;;4995797;27;100477;-76
2022/01/11 11:42:01;;;;;;;15.40;6.22;;;;;;;;;;5032568;27;100510;-76
2022/01/11 11:44:30;;;;;;;13.68;5.25;;;;;;;;;;5017651;27;100190;-76
2022/01/11 11:47:01;;;;;;;12.48;5.55;;;;;;;;;;5016255;27;100248;-75
2022/01/11 11:49:44;;;;;;;12.60;5.20;;;;;;;;;;5032653;27;100323;-74
2022/01/11 11:52:16;;;;;;;14.05;5.78;;;;;;;;;;5031312;27;101192;-76
2022/01/11 11:54:52;;;;;;;12.80;5.60;;;;;;;;;;5046752;27;100098;-76
2022/01/11 11:57:27;;;;;;;13.45;5.55;;;;;;;;;;5032555;27;100828;-76
2022/01/11 11:59:58;;;;;;;14.05;5.18;;;;;;;;;;5050427;27;100342;-75
2022/01/11 12:02:39;;;;;;;12.52;4.75;;;;;;;;;;5050559;27;100548;-76
2022/01/11 12:05:11;;;;;;;15.77;5.43;;;;;;;;;;5027307;27;100226;-75
2022/01/11 12:07:44;;;;;;;14.90;5.53;;;;;;;;;;5031970;27;100101;-75
2022/01/11 12:10:29;;;;;;;16.73;6.72;;;;;;;;;;5030814;27;101590;-75
2022/01/11 12:12:56;;;;;;;12.18;5.38;;;;;;;;;;5014560;27;101575;-75
2022/01/11 12:15:31;;;;;;;12.02;5.63;;;;;;;;;;5022436;27;100603;-76
2022/01/11 12:18:04;;;;;;;14.52;5.90;;;;;;;;;;5030584;27;100176;-76
2022/01/11 12:20:41;;;;;;;9.65;4.50;;;;;;;;;;5048705;27;100145;-76
2022/01/11 12:23:20;;;;;;;12.00;5.43;;;;;;;;;;5051305;27;100698;-76
2022/01/11 12:25:53;;;;;;;14.38;6.25;;;;;;;;;;5050120;27;100733;-75
2022/01/11 12:28:24;;;;;;;10.85;4.80;;;;;;;;;;5030184;27;100383;-75
2022/01/11 12:30:51;;;;;;;11.60;4.53;;;;;;;;;;5049907;27;100246;-74
2022/01/11 12:33:21;;;;;;;11.23;4.68;;;;;;;;;;5031363;27;100634;-74
2022/01/11 12:35:59;;;;;;;11.88;5.35;;;;;;;;;;5011975;27;100759;-75
2022/01/11 12:38:27;;;;;;;15.07;5.47;;;;;;;;;;4995484;27;100278;-75
2022/01/11 12:40:54;;;;;;;15.07;5.93;;;;;;;;;;5032168;27;103233;-75
2022/01/11 12:43:40;;;;;;;15.75;5.28;;;;;;;;;;4995124;27;100733;-75
2022/01/11 12:46:11;;;;;;;10.93;5.40;;;;;;;;;;5005707;28;100211;-76
2022/01/11 12:48:49;;;;;;;13.48;5.50;;;;;;;;;;5049834;27;100293;-75
2022/01/11 12:51:19;;;;;;;13.25;5.00;;;;;;;;;;5026924;27;100847;-75
2022/01/11 12:53:46;;;;;;;15.40;6.35;;;;;;;;;;5049700;27;102667;-75
2022/01/11 12:56:13;;;;;;;14.48;5.50;;;;;;;;;;5031068;27;100266;-75
2022/01/11 12:58:39;;;;;;;13.10;5.82;;;;;;;;;;5028602;27;100200;-74
2022/01/11 13:01:16;;;;;;;13.93;6.03;;;;;;;;;;5045825;27;101596;-75
2022/01/11 13:03:52;;;;;;;12.70;6.13;;;;;;;;;;5029100;27;100695;-75
2022/01/11 13:06:20;;;;;;;13.25;5.63;;;;;;;;;;5029058;27;100632;-75
2022/01/11 13:08:50;;;;;;;13.57;5.35;;;;;;;;;;5027190;27;100115;-75
2022/01/11 13:11:19;;;;;;;13.35;5.25;;;;;;;;;;5049758;27;100298;-75
2022/01/11 13:13:54;;;;;;;11.95;5.70;;;;;;;;;;5040276;27;100611;-75
2022/01/11 13:16:26;;;;;;;12.50;4.97;;;;;;;;;;5047924;27;100185;-76
2022/01/11 13:18:53;;;;;;;10.93;5.05;;;;;;;;;;5018200;27;101199;-75
2022/01/11 13:21:32;;;;;;;10.82;5.18;;;;;;;;;;5034785;27;100903;-76
2022/01/11 13:24:11;;;;;;;13.13;6.32;;;;;;;;;;5044603;27;103859;-75
2022/01/11 13:26:38;;;;;;;13.98;6.18;;;;;;;;;;5051956;27;103249;-76
2022/01/11 13:29:07;;;;;;;15.63;6.68;;;;;;;;;;5034679;27;100241;-75
2022/01/11 13:31:40;;;;;;;14.52;6.50;;;;;;;;;;5068584;27;100915;-75
2022/01/11 13:34:11;;;;;;;13.32;5.30;;;;;;;;;;5038885;27;100623;-75
2022/01/11 13:36:41;;;;;;;12.52;5.45;;;;;;;;;;4978823;27;102783;-74
2022/01/11 13:39:13;;;;;;;14.23;6.55;;;;;;;;;;5035227;27;100623;-76
2022/01/11 13:41:48;;;;;;;16.55;6.82;;;;;;;;;;5027302;27;100520;-74
2022/01/11 13:44:16;;;;;;;13.90;6.22;;;;;;;;;;5023372;27;100706;-74
2022/01/11 13:46:47;;;;;;;14.45;6.28;;;;;;;;;;5015686;27;100179;-75
2022/01/11 13:49:26;;;;;;;15.57;6.82;;;;;;;;;;5005595;28;100501;-75
2022/01/11 13:52:16;;;;;;;16.23;6.38;;;;;;;;;;4990101;27;100322;-75
2022/01/11 13:54:55;;;;;;;19.55;6.22;;;;;;;;;;4996594;28;101948;-76
2022/01/11 13:57:29;;;;;;;;;;;;;;;;;;4987030;28;100423;-77
2022/01/11 14:00:13;;;;;;;15.63;7.63;;;;;;;;;;5008806;28;100595;-75
2022/01/11 14:02:55;;;;;;;18.48;8.65;;;;;;;;;;4999006;27;100389;-75
2022/01/11 14:05:28;;;;;;;15.88;7.13;;;;;;;;;;5022787;27;101639;-75
2022/01/11 14:07:59;;;;;;;15.13;6.30;;;;;;;;;;5019665;27;100138;-74
2022/01/11 14:10:28;;;;;;;12.20;5.90;;;;;;;;;;5028585;27;100187;-75
2022/01/11 14:12:55;;;;;;;12.13;6.30;;;;;;;;;;5005809;27;100551;-75
2022/01/11 14:15:29;;;;;;;14.63;5.90;;;;;;;;;;4999089;27;100680;-74
2022/01/11 14:18:00;;;;;;;21.38;6.97;;;;;;;;;;5032552;27;100134;-74
2022/01/11 14:20:28;;;;;;;16.50;6.95;;;;;;;;;;5003510;27;100306;-74
2022/01/11 14:22:56;;;;;;;16.92;7.18;;;;;;;;;;5001685;28;100803;-75
2022/01/11 14:25:31;;;;;;;13.82;6.60;;;;;;;;;;5007888;28;101947;-75
2022/01/11 14:28:17;;;;;;;17.85;6.57;;;;;;;;;;5009331;27;100357;-75
2022/01/11 14:30:53;;;;;;;15.55;6.13;;;;;;;;;;4999869;28;100315;-75
2022/01/11 14:33:22;;;;;;;14.15;6.28;;;;;;;;;;5030261;27;101507;-76
2022/01/11 14:36:02;;;;;;;22.52;7.90;;;;;;;;;;5033802;27;100765;-75
2022/01/11 14:38:44;;;;;;;17.75;7.60;;;;;;;;;;5029422;27;100225;-75
2022/01/11 14:41:13;;;;;;;20.85;7.80;;;;;;;;;;5028793;27;100207;-76
2022/01/11 14:43:39;;;;;;;28.70;9.43;;;;;;;;;;5015132;27;100957;-76